sensor_id;sensor_type;location;lat;lon;timestamp;P1;durP1;ratioP1;P2;durP2;ratioP2
842;SDS011;407;48.884;9.126;2023-07-20T00:01:15;6.17;;;1.70;;
842;SDS011;407;48.884;9.126;2023-07-20T00:03:41;5.88;;;1.60;;
842;SDS011;407;48.884;9.126;2023-07-20T00:06:09;5.97;;;1.40;;
842;SDS011;407;48.884;9.126;2023-07-20T00:08:35;5.72;;;1.70;;
842;SDS011;407;48.884;9.126;2023-07-20T00:11:01;5.20;;;1.20;;
842;SDS011;407;48.884;9.126;2023-07-20T00:13:26;5.13;;;1.30;;
842;SDS011;407;48.884;9.126;2023-07-20T00:15:52;7.18;;;1.70;;
842;SDS011;407;48.884;9.126;2023-07-20T00:18:18;6.07;;;1.50;;
842;SDS011;407;48.884;9.126;2023-07-20T00:20:46;6.00;;;1.53;;
842;SDS011;407;48.884;9.126;2023-07-20T00:23:12;9.90;;;2.00;;
842;SDS011;407;48.884;9.126;2023-07-20T00:25:37;6.27;;;1.60;;
842;SDS011;407;48.884;9.126;2023-07-20T00:28:03;7.50;;;2.00;;
842;SDS011;407;48.884;9.126;2023-07-20T00:30:29;5.90;;;1.50;;
842;SDS011;407;48.884;9.126;2023-07-20T00:32:54;5.40;;;1.40;;
842;SDS011;407;48.884;9.126;2023-07-20T00:35:20;6.00;;;1.50;;
842;SDS011;407;48.884;9.126;2023-07-20T00:37:46;6.70;;;1.30;;
842;SDS011;407;48.884;9.126;2023-07-20T00:40:11;6.13;;;1.50;;
842;SDS011;407;48.884;9.126;2023-07-20T00:42:37;6.70;;;1.50;;
842;SDS011;407;48.884;9.126;2023-07-20T00:45:03;6.10;;;1.50;;
842;SDS011;407;48.884;9.126;2023-07-20T00:47:29;5.10;;;1.30;;
842;SDS011;407;48.884;9.126;2023-07-20T00:49:55;5.70;;;1.30;;
842;SDS011;407;48.884;9.126;2023-07-20T00:52:21;5.63;;;1.43;;
842;SDS011;407;48.884;9.126;2023-07-20T00:54:48;6.50;;;1.30;;
842;SDS011;407;48.884;9.126;2023-07-20T00:57:14;5.85;;;1.42;;
842;SDS011;407;48.884;9.126;2023-07-20T00:59:40;5.93;;;1.53;;
842;SDS011;407;48.884;9.126;2023-07-20T01:02:06;6.20;;;1.60;;
842;SDS011;407;48.884;9.126;2023-07-20T01:04:32;6.70;;;1.63;;
842;SDS011;407;48.884;9.126;2023-07-20T01:07:10;7.60;;;1.80;;
842;SDS011;407;48.884;9.126;2023-07-20T01:10:05;5.60;;;1.40;;
842;SDS011;407;48.884;9.126;2023-07-20T01:12:47;6.30;;;1.53;;
842;SDS011;407;48.884;9.126;2023-07-20T01:15:15;8.90;;;1.52;;
842;SDS011;407;48.884;9.126;2023-07-20T01:17:42;5.93;;;1.30;;
842;SDS011;407;48.884;9.126;2023-07-20T01:20:09;7.05;;;1.30;;
842;SDS011;407;48.884;9.126;2023-07-20T01:33:46;6.43;;;1.70;;
842;SDS011;407;48.884;9.126;2023-07-20T01:36:14;7.65;;;1.30;;
842;SDS011;407;48.884;9.126;2023-07-20T01:38:42;5.75;;;1.38;;
842;SDS011;407;48.884;9.126;2023-07-20T01:41:09;5.45;;;1.50;;
842;SDS011;407;48.884;9.126;2023-07-20T01:43:39;5.40;;;1.20;;
842;SDS011;407;48.884;9.126;2023-07-20T01:46:05;5.93;;;1.70;;
842;SDS011;407;48.884;9.126;2023-07-20T01:48:31;5.80;;;1.60;;
842;SDS011;407;48.884;9.126;2023-07-20T01:50:57;6.60;;;1.70;;
842;SDS011;407;48.884;9.126;2023-07-20T01:53:23;6.20;;;1.85;;
842;SDS011;407;48.884;9.126;2023-07-20T01:55:48;6.80;;;1.13;;
842;SDS011;407;48.884;9.126;2023-07-20T01:58:14;5.70;;;1.50;;
842;SDS011;407;48.884;9.126;2023-07-20T02:00:40;7.15;;;2.13;;
842;SDS011;407;48.884;9.126;2023-07-20T02:03:05;5.40;;;1.60;;
842;SDS011;407;48.884;9.126;2023-07-20T02:05:31;6.80;;;1.50;;
842;SDS011;407;48.884;9.126;2023-07-20T02:07:57;5.85;;;1.60;;
842;SDS011;407;48.884;9.126;2023-07-20T02:10:22;5.50;;;1.50;;
842;SDS011;407;48.884;9.126;2023-07-20T02:12:48;5.73;;;1.40;;
842;SDS011;407;48.884;9.126;2023-07-20T02:15:14;7.00;;;1.70;;
842;SDS011;407;48.884;9.126;2023-07-20T02:17:41;7.60;;;1.70;;
842;SDS011;407;48.884;9.126;2023-07-20T02:20:07;6.60;;;1.60;;
842;SDS011;407;48.884;9.126;2023-07-20T02:22:35;7.25;;;1.52;;
842;SDS011;407;48.884;9.126;2023-07-20T02:25:03;5.97;;;1.85;;
842;SDS011;407;48.884;9.126;2023-07-20T02:27:29;6.72;;;1.65;;
842;SDS011;407;48.884;9.126;2023-07-20T02:29:55;6.30;;;1.50;;
842;SDS011;407;48.884;9.126;2023-07-20T02:32:21;5.63;;;1.40;;
842;SDS011;407;48.884;9.126;2023-07-20T02:34:47;5.63;;;1.60;;
842;SDS011;407;48.884;9.126;2023-07-20T02:37:12;6.00;;;1.50;;
842;SDS011;407;48.884;9.126;2023-07-20T02:39:38;8.90;;;1.60;;
842;SDS011;407;48.884;9.126;2023-07-20T02:42:04;6.40;;;1.70;;
842;SDS011;407;48.884;9.126;2023-07-20T02:44:30;6.90;;;1.87;;
842;SDS011;407;48.884;9.126;2023-07-20T02:46:55;7.15;;;1.90;;
842;SDS011;407;48.884;9.126;2023-07-20T02:49:21;6.47;;;1.77;;
842;SDS011;407;48.884;9.126;2023-07-20T02:51:46;9.10;;;1.98;;
842;SDS011;407;48.884;9.126;2023-07-20T02:54:12;6.40;;;2.00;;
842;SDS011;407;48.884;9.126;2023-07-20T02:56:37;6.10;;;1.97;;
842;SDS011;407;48.884;9.126;2023-07-20T02:59:03;10.93;;;1.70;;
842;SDS011;407;48.884;9.126;2023-07-20T03:01:29;6.65;;;1.80;;
842;SDS011;407;48.884;9.126;2023-07-20T03:03:57;7.20;;;1.40;;
842;SDS011;407;48.884;9.126;2023-07-20T03:06:23;5.53;;;1.50;;
842;SDS011;407;48.884;9.126;2023-07-20T03:08:49;6.73;;;1.70;;
842;SDS011;407;48.884;9.126;2023-07-20T03:11:17;5.75;;;1.40;;
842;SDS011;407;48.884;9.126;2023-07-20T03:13:43;7.03;;;1.77;;
842;SDS011;407;48.884;9.126;2023-07-20T03:16:10;9.73;;;2.20;;
842;SDS011;407;48.884;9.126;2023-07-20T03:18:37;5.70;;;1.80;;
842;SDS011;407;48.884;9.126;2023-07-20T03:21:03;7.60;;;1.98;;
842;SDS011;407;48.884;9.126;2023-07-20T03:23:33;9.38;;;1.80;;
842;SDS011;407;48.884;9.126;2023-07-20T03:25:58;5.40;;;1.23;;
842;SDS011;407;48.884;9.126;2023-07-20T03:28:24;6.50;;;2.00;;
842;SDS011;407;48.884;9.126;2023-07-20T03:30:54;6.07;;;1.70;;
842;SDS011;407;48.884;9.126;2023-07-20T03:33:25;5.90;;;1.70;;
842;SDS011;407;48.884;9.126;2023-07-20T03:35:53;7.07;;;2.00;;
842;SDS011;407;48.884;9.126;2023-07-20T03:38:19;5.95;;;1.85;;
842;SDS011;407;48.884;9.126;2023-07-20T03:40:58;6.82;;;1.67;;
842;SDS011;407;48.884;9.126;2023-07-20T03:43:29;9.85;;;2.38;;
842;SDS011;407;48.884;9.126;2023-07-20T03:46:01;7.45;;;1.60;;
842;SDS011;407;48.884;9.126;2023-07-20T03:48:32;6.60;;;1.80;;
842;SDS011;407;48.884;9.126;2023-07-20T03:50:58;7.40;;;2.00;;
842;SDS011;407;48.884;9.126;2023-07-20T03:53:27;5.90;;;1.70;;
842;SDS011;407;48.884;9.126;2023-07-20T03:55:53;6.72;;;1.70;;
842;SDS011;407;48.884;9.126;2023-07-20T03:58:22;5.28;;;1.40;;
842;SDS011;407;48.884;9.126;2023-07-20T04:00:50;6.90;;;2.00;;
842;SDS011;407;48.884;9.126;2023-07-20T04:03:16;7.47;;;2.00;;
842;SDS011;407;48.884;9.126;2023-07-20T04:05:43;10.43;;;2.40;;
842;SDS011;407;48.884;9.126;2023-07-20T04:08:09;5.97;;;1.55;;
842;SDS011;407;48.884;9.126;2023-07-20T04:10:38;6.73;;;1.70;;
842;SDS011;407;48.884;9.126;2023-07-20T04:13:04;8.57;;;1.88;;
842;SDS011;407;48.884;9.126;2023-07-20T04:15:30;6.30;;;1.60;;
842;SDS011;407;48.884;9.126;2023-07-20T04:17:56;8.05;;;2.17;;
842;SDS011;407;48.884;9.126;2023-07-20T04:20:22;7.20;;;1.77;;
842;SDS011;407;48.884;9.126;2023-07-20T04:22:48;6.93;;;1.60;;
842;SDS011;407;48.884;9.126;2023-07-20T04:25:14;7.60;;;2.20;;
842;SDS011;407;48.884;9.126;2023-07-20T04:27:40;6.00;;;1.75;;
842;SDS011;407;48.884;9.126;2023-07-20T04:30:07;6.20;;;1.70;;
842;SDS011;407;48.884;9.126;2023-07-20T04:32:33;6.90;;;2.00;;
842;SDS011;407;48.884;9.126;2023-07-20T04:34:59;10.95;;;1.90;;
842;SDS011;407;48.884;9.126;2023-07-20T04:37:25;11.40;;;2.38;;
842;SDS011;407;48.884;9.126;2023-07-20T04:39:50;8.10;;;1.77;;
842;SDS011;407;48.884;9.126;2023-07-20T04:42:16;5.70;;;1.70;;
842;SDS011;407;48.884;9.126;2023-07-20T04:44:41;6.88;;;1.50;;
842;SDS011;407;48.884;9.126;2023-07-20T04:47:07;13.20;;;1.60;;
842;SDS011;407;48.884;9.126;2023-07-20T04:49:33;9.40;;;1.50;;
842;SDS011;407;48.884;9.126;2023-07-20T04:51:59;7.68;;;1.58;;
842;SDS011;407;48.884;9.126;2023-07-20T04:54:25;6.00;;;1.57;;
842;SDS011;407;48.884;9.126;2023-07-20T04:56:53;7.60;;;1.80;;
842;SDS011;407;48.884;9.126;2023-07-20T04:59:19;6.07;;;1.70;;
842;SDS011;407;48.884;9.126;2023-07-20T05:01:44;6.57;;;1.63;;
842;SDS011;407;48.884;9.126;2023-07-20T05:04:10;6.90;;;1.67;;
842;SDS011;407;48.884;9.126;2023-07-20T05:06:36;6.60;;;1.53;;
842;SDS011;407;48.884;9.126;2023-07-20T05:09:04;6.68;;;1.90;;
842;SDS011;407;48.884;9.126;2023-07-20T05:11:31;7.22;;;1.60;;
842;SDS011;407;48.884;9.126;2023-07-20T05:13:57;7.57;;;1.90;;
842;SDS011;407;48.884;9.126;2023-07-20T05:16:23;8.47;;;1.70;;
842;SDS011;407;48.884;9.126;2023-07-20T05:18:48;6.63;;;1.60;;
842;SDS011;407;48.884;9.126;2023-07-20T05:21:14;6.63;;;1.77;;
842;SDS011;407;48.884;9.126;2023-07-20T05:23:39;5.97;;;1.20;;
842;SDS011;407;48.884;9.126;2023-07-20T05:26:08;7.50;;;1.73;;
842;SDS011;407;48.884;9.126;2023-07-20T05:28:34;6.50;;;1.63;;
842;SDS011;407;48.884;9.126;2023-07-20T05:31:02;5.80;;;1.50;;
842;SDS011;407;48.884;9.126;2023-07-20T05:33:30;6.50;;;1.40;;
842;SDS011;407;48.884;9.126;2023-07-20T05:36:01;7.67;;;1.40;;
842;SDS011;407;48.884;9.126;2023-07-20T05:38:26;6.80;;;1.73;;
842;SDS011;407;48.884;9.126;2023-07-20T05:40:52;6.35;;;1.80;;
842;SDS011;407;48.884;9.126;2023-07-20T05:43:24;5.80;;;1.40;;
842;SDS011;407;48.884;9.126;2023-07-20T05:45:49;6.40;;;1.70;;
842;SDS011;407;48.884;9.126;2023-07-20T05:48:15;5.60;;;1.60;;
842;SDS011;407;48.884;9.126;2023-07-20T05:50:41;6.57;;;1.70;;
842;SDS011;407;48.884;9.126;2023-07-20T05:53:08;6.75;;;1.60;;
842;SDS011;407;48.884;9.126;2023-07-20T05:55:34;6.68;;;1.33;;
842;SDS011;407;48.884;9.126;2023-07-20T05:57:59;6.32;;;1.45;;
842;SDS011;407;48.884;9.126;2023-07-20T06:00:25;7.83;;;1.50;;
842;SDS011;407;48.884;9.126;2023-07-20T06:02:52;7.70;;;1.58;;
842;SDS011;407;48.884;9.126;2023-07-20T06:05:18;5.80;;;1.30;;
842;SDS011;407;48.884;9.126;2023-07-20T06:07:45;5.90;;;1.30;;
842;SDS011;407;48.884;9.126;2023-07-20T06:10:10;5.95;;;1.55;;
842;SDS011;407;48.884;9.126;2023-07-20T06:12:36;8.75;;;1.70;;
842;SDS011;407;48.884;9.126;2023-07-20T06:15:02;6.30;;;1.70;;
842;SDS011;407;48.884;9.126;2023-07-20T06:17:29;8.57;;;1.70;;
842;SDS011;407;48.884;9.126;2023-07-20T06:19:55;6.00;;;1.90;;
842;SDS011;407;48.884;9.126;2023-07-20T06:22:20;5.77;;;1.67;;
842;SDS011;407;48.884;9.126;2023-07-20T06:24:46;6.43;;;1.77;;
842;SDS011;407;48.884;9.126;2023-07-20T06:27:11;6.50;;;1.38;;
842;SDS011;407;48.884;9.126;2023-07-20T06:29:37;5.80;;;1.38;;
842;SDS011;407;48.884;9.126;2023-07-20T06:32:04;5.40;;;1.10;;
842;SDS011;407;48.884;9.126;2023-07-20T06:34:30;5.55;;;1.30;;
842;SDS011;407;48.884;9.126;2023-07-20T06:36:55;5.63;;;1.27;;
842;SDS011;407;48.884;9.126;2023-07-20T06:39:21;5.30;;;1.30;;
842;SDS011;407;48.884;9.126;2023-07-20T06:41:47;5.60;;;1.40;;
842;SDS011;407;48.884;9.126;2023-07-20T06:44:13;5.30;;;1.27;;
842;SDS011;407;48.884;9.126;2023-07-20T06:46:38;5.80;;;1.20;;
842;SDS011;407;48.884;9.126;2023-07-20T06:49:05;5.73;;;1.10;;
842;SDS011;407;48.884;9.126;2023-07-20T06:51:32;6.85;;;1.73;;
842;SDS011;407;48.884;9.126;2023-07-20T06:53:57;5.10;;;1.10;;
842;SDS011;407;48.884;9.126;2023-07-20T06:56:23;5.10;;;0.90;;
842;SDS011;407;48.884;9.126;2023-07-20T06:58:48;5.10;;;1.20;;
842;SDS011;407;48.884;9.126;2023-07-20T07:01:14;6.20;;;1.20;;
842;SDS011;407;48.884;9.126;2023-07-20T07:03:39;5.60;;;1.50;;
842;SDS011;407;48.884;9.126;2023-07-20T07:06:05;5.77;;;1.40;;
842;SDS011;407;48.884;9.126;2023-07-20T07:08:31;6.47;;;1.50;;
842;SDS011;407;48.884;9.126;2023-07-20T07:10:56;6.22;;;1.30;;
842;SDS011;407;48.884;9.126;2023-07-20T07:13:22;5.80;;;1.67;;
842;SDS011;407;48.884;9.126;2023-07-20T07:15:48;6.53;;;1.45;;
842;SDS011;407;48.884;9.126;2023-07-20T07:18:13;5.97;;;1.77;;
842;SDS011;407;48.884;9.126;2023-07-20T07:20:39;5.27;;;1.00;;
842;SDS011;407;48.884;9.126;2023-07-20T07:23:04;6.17;;;0.93;;
842;SDS011;407;48.884;9.126;2023-07-20T07:25:30;8.85;;;1.70;;
842;SDS011;407;48.884;9.126;2023-07-20T07:27:57;7.20;;;1.40;;
842;SDS011;407;48.884;9.126;2023-07-20T07:30:22;8.35;;;1.60;;
842;SDS011;407;48.884;9.126;2023-07-20T07:32:48;5.67;;;1.63;;
842;SDS011;407;48.884;9.126;2023-07-20T07:35:13;6.63;;;1.40;;
842;SDS011;407;48.884;9.126;2023-07-20T07:37:39;6.13;;;1.43;;
842;SDS011;407;48.884;9.126;2023-07-20T07:40:05;6.05;;;1.45;;
842;SDS011;407;48.884;9.126;2023-07-20T07:42:32;12.40;;;2.40;;
842;SDS011;407;48.884;9.126;2023-07-20T07:44:58;5.53;;;1.13;;
842;SDS011;407;48.884;9.126;2023-07-20T07:47:23;7.30;;;1.50;;
842;SDS011;407;48.884;9.126;2023-07-20T07:49:49;7.50;;;1.43;;
842;SDS011;407;48.884;9.126;2023-07-20T07:52:15;6.88;;;1.75;;
842;SDS011;407;48.884;9.126;2023-07-20T07:54:40;8.40;;;1.60;;
842;SDS011;407;48.884;9.126;2023-07-20T07:57:06;4.97;;;1.08;;
842;SDS011;407;48.884;9.126;2023-07-20T07:59:31;5.90;;;1.58;;
842;SDS011;407;48.884;9.126;2023-07-20T08:02:01;10.90;;;1.60;;
842;SDS011;407;48.884;9.126;2023-07-20T08:04:29;5.90;;;1.50;;
842;SDS011;407;48.884;9.126;2023-07-20T08:06:55;6.00;;;1.60;;
842;SDS011;407;48.884;9.126;2023-07-20T08:09:20;5.20;;;1.30;;
842;SDS011;407;48.884;9.126;2023-07-20T08:11:46;6.30;;;1.50;;
842;SDS011;407;48.884;9.126;2023-07-20T08:14:13;6.80;;;1.20;;
842;SDS011;407;48.884;9.126;2023-07-20T08:16:38;5.97;;;1.50;;
842;SDS011;407;48.884;9.126;2023-07-20T08:19:04;5.97;;;1.30;;
842;SDS011;407;48.884;9.126;2023-07-20T08:21:29;6.30;;;1.50;;
842;SDS011;407;48.884;9.126;2023-07-20T08:23:55;5.43;;;1.37;;
842;SDS011;407;48.884;9.126;2023-07-20T08:26:20;8.18;;;1.60;;
842;SDS011;407;48.884;9.126;2023-07-20T08:28:47;5.70;;;1.40;;
842;SDS011;407;48.884;9.126;2023-07-20T08:31:13;6.30;;;1.27;;
842;SDS011;407;48.884;9.126;2023-07-20T08:33:39;7.32;;;1.67;;
842;SDS011;407;48.884;9.126;2023-07-20T08:36:05;6.05;;;1.10;;
842;SDS011;407;48.884;9.126;2023-07-20T08:38:30;6.70;;;1.70;;
842;SDS011;407;48.884;9.126;2023-07-20T08:40:56;5.50;;;1.40;;
842;SDS011;407;48.884;9.126;2023-07-20T08:43:24;5.50;;;1.10;;
842;SDS011;407;48.884;9.126;2023-07-20T08:45:50;6.60;;;1.40;;
842;SDS011;407;48.884;9.126;2023-07-20T08:48:18;7.20;;;1.70;;
842;SDS011;407;48.884;9.126;2023-07-20T08:50:46;5.50;;;1.50;;
842;SDS011;407;48.884;9.126;2023-07-20T08:53:14;6.35;;;1.50;;
842;SDS011;407;48.884;9.126;2023-07-20T08:55:40;8.60;;;1.60;;
842;SDS011;407;48.884;9.126;2023-07-20T08:58:08;6.07;;;1.27;;
842;SDS011;407;48.884;9.126;2023-07-20T09:00:35;5.05;;;1.08;;
842;SDS011;407;48.884;9.126;2023-07-20T09:03:01;6.38;;;1.25;;
842;SDS011;407;48.884;9.126;2023-07-20T09:05:28;5.20;;;1.17;;
842;SDS011;407;48.884;9.126;2023-07-20T09:07:54;6.00;;;1.90;;
842;SDS011;407;48.884;9.126;2023-07-20T09:10:23;6.33;;;1.50;;
842;SDS011;407;48.884;9.126;2023-07-20T09:12:49;5.82;;;1.30;;
842;SDS011;407;48.884;9.126;2023-07-20T09:15:15;6.32;;;1.02;;
842;SDS011;407;48.884;9.126;2023-07-20T09:17:45;7.20;;;1.30;;
842;SDS011;407;48.884;9.126;2023-07-20T09:20:15;6.05;;;1.13;;
842;SDS011;407;48.884;9.126;2023-07-20T09:22:42;5.60;;;1.30;;
842;SDS011;407;48.884;9.126;2023-07-20T09:25:16;5.50;;;1.40;;
842;SDS011;407;48.884;9.126;2023-07-20T09:27:43;8.25;;;1.30;;
842;SDS011;407;48.884;9.126;2023-07-20T09:30:10;6.30;;;1.20;;
842;SDS011;407;48.884;9.126;2023-07-20T09:32:38;5.20;;;1.20;;
842;SDS011;407;48.884;9.126;2023-07-20T09:35:18;6.20;;;1.50;;
842;SDS011;407;48.884;9.126;2023-07-20T09:40:19;7.60;;;1.08;;
842;SDS011;407;48.884;9.126;2023-07-20T09:42:45;5.83;;;1.20;;
842;SDS011;407;48.884;9.126;2023-07-20T09:45:12;5.80;;;1.27;;
842;SDS011;407;48.884;9.126;2023-07-20T09:47:38;5.70;;;1.33;;
842;SDS011;407;48.884;9.126;2023-07-20T09:50:04;5.18;;;0.98;;
842;SDS011;407;48.884;9.126;2023-07-20T09:52:35;8.25;;;1.45;;
842;SDS011;407;48.884;9.126;2023-07-20T09:55:04;4.80;;;0.77;;
842;SDS011;407;48.884;9.126;2023-07-20T09:57:31;4.50;;;0.70;;
842;SDS011;407;48.884;9.126;2023-07-20T09:59:58;5.53;;;1.10;;
842;SDS011;407;48.884;9.126;2023-07-20T10:02:30;5.40;;;0.90;;
842;SDS011;407;48.884;9.126;2023-07-20T10:04:58;5.93;;;1.30;;
842;SDS011;407;48.884;9.126;2023-07-20T10:07:28;5.57;;;1.08;;
842;SDS011;407;48.884;9.126;2023-07-20T10:09:55;5.20;;;1.10;;
842;SDS011;407;48.884;9.126;2023-07-20T10:12:24;9.47;;;1.37;;
842;SDS011;407;48.884;9.126;2023-07-20T10:14:59;5.35;;;1.13;;
842;SDS011;407;48.884;9.126;2023-07-20T10:18:07;6.45;;;0.90;;
842;SDS011;407;48.884;9.126;2023-07-20T10:20:48;6.03;;;1.25;;
842;SDS011;407;48.884;9.126;2023-07-20T10:23:16;5.03;;;1.00;;
842;SDS011;407;48.884;9.126;2023-07-20T10:25:42;5.80;;;0.90;;
842;SDS011;407;48.884;9.126;2023-07-20T10:28:08;9.70;;;1.50;;
842;SDS011;407;48.884;9.126;2023-07-20T10:30:36;5.60;;;1.13;;
842;SDS011;407;48.884;9.126;2023-07-20T10:33:02;5.90;;;1.10;;
842;SDS011;407;48.884;9.126;2023-07-20T10:35:29;4.70;;;0.70;;
842;SDS011;407;48.884;9.126;2023-07-20T10:37:59;5.40;;;1.00;;
842;SDS011;407;48.884;9.126;2023-07-20T10:40:33;5.57;;;1.10;;
842;SDS011;407;48.884;9.126;2023-07-20T10:43:03;5.20;;;0.90;;
842;SDS011;407;48.884;9.126;2023-07-20T10:48:22;6.43;;;0.80;;
842;SDS011;407;48.884;9.126;2023-07-20T10:53:35;5.55;;;1.00;;
842;SDS011;407;48.884;9.126;2023-07-20T10:56:07;5.50;;;0.90;;
842;SDS011;407;48.884;9.126;2023-07-20T10:58:36;5.73;;;1.43;;
842;SDS011;407;48.884;9.126;2023-07-20T11:01:02;5.33;;;1.10;;
842;SDS011;407;48.884;9.126;2023-07-20T11:03:37;6.63;;;1.20;;
842;SDS011;407;48.884;9.126;2023-07-20T11:06:29;5.10;;;1.30;;
842;SDS011;407;48.884;9.126;2023-07-20T11:09:03;5.63;;;1.55;;
842;SDS011;407;48.884;9.126;2023-07-20T11:11:30;5.50;;;1.05;;
842;SDS011;407;48.884;9.126;2023-07-20T11:13:57;5.60;;;1.10;;
842;SDS011;407;48.884;9.126;2023-07-20T11:19:18;5.30;;;1.10;;
842;SDS011;407;48.884;9.126;2023-07-20T11:21:53;5.10;;;0.90;;
842;SDS011;407;48.884;9.126;2023-07-20T11:24:23;5.57;;;1.10;;
842;SDS011;407;48.884;9.126;2023-07-20T11:26:50;4.80;;;0.95;;
842;SDS011;407;48.884;9.126;2023-07-20T11:29:17;5.20;;;0.82;;
842;SDS011;407;48.884;9.126;2023-07-20T11:31:45;5.30;;;0.98;;
842;SDS011;407;48.884;9.126;2023-07-20T11:34:15;5.00;;;0.82;;
842;SDS011;407;48.884;9.126;2023-07-20T11:36:43;5.10;;;0.98;;
842;SDS011;407;48.884;9.126;2023-07-20T11:39:13;4.80;;;0.80;;
842;SDS011;407;48.884;9.126;2023-07-20T11:41:47;5.10;;;0.90;;
842;SDS011;407;48.884;9.126;2023-07-20T11:44:17;4.80;;;0.90;;
842;SDS011;407;48.884;9.126;2023-07-20T11:46:44;6.00;;;1.20;;
842;SDS011;407;48.884;9.126;2023-07-20T11:49:10;4.70;;;1.00;;
842;SDS011;407;48.884;9.126;2023-07-20T11:51:36;5.38;;;1.30;;
842;SDS011;407;48.884;9.126;2023-07-20T11:54:05;7.40;;;1.10;;
842;SDS011;407;48.884;9.126;2023-07-20T11:56:32;5.20;;;1.10;;
842;SDS011;407;48.884;9.126;2023-07-20T11:58:58;5.30;;;0.80;;
842;SDS011;407;48.884;9.126;2023-07-20T12:01:25;5.00;;;0.90;;
842;SDS011;407;48.884;9.126;2023-07-20T12:03:56;5.70;;;1.27;;
842;SDS011;407;48.884;9.126;2023-07-20T12:06:23;5.20;;;1.10;;
842;SDS011;407;48.884;9.126;2023-07-20T12:08:50;4.90;;;1.00;;
842;SDS011;407;48.884;9.126;2023-07-20T12:11:42;7.40;;;1.10;;
842;SDS011;407;48.884;9.126;2023-07-20T12:14:08;5.30;;;1.20;;
842;SDS011;407;48.884;9.126;2023-07-20T12:16:35;5.07;;;0.90;;
842;SDS011;407;48.884;9.126;2023-07-20T12:19:04;5.50;;;1.10;;
842;SDS011;407;48.884;9.126;2023-07-20T12:21:31;4.90;;;0.90;;
842;SDS011;407;48.884;9.126;2023-07-20T12:23:59;6.70;;;1.40;;
842;SDS011;407;48.884;9.126;2023-07-20T12:26:25;5.90;;;1.00;;
842;SDS011;407;48.884;9.126;2023-07-20T12:28:51;4.97;;;1.00;;
842;SDS011;407;48.884;9.126;2023-07-20T12:31:17;4.90;;;0.85;;
842;SDS011;407;48.884;9.126;2023-07-20T12:33:43;5.90;;;1.10;;
842;SDS011;407;48.884;9.126;2023-07-20T12:36:09;5.30;;;1.00;;
842;SDS011;407;48.884;9.126;2023-07-20T12:38:35;5.20;;;0.80;;
842;SDS011;407;48.884;9.126;2023-07-20T12:41:01;5.18;;;1.08;;
842;SDS011;407;48.884;9.126;2023-07-20T12:43:28;4.90;;;0.90;;
842;SDS011;407;48.884;9.126;2023-07-20T12:45:54;6.13;;;1.10;;
842;SDS011;407;48.884;9.126;2023-07-20T12:48:20;5.18;;;0.88;;
842;SDS011;407;48.884;9.126;2023-07-20T12:50:46;6.40;;;0.95;;
842;SDS011;407;48.884;9.126;2023-07-20T12:53:12;5.38;;;1.10;;
842;SDS011;407;48.884;9.126;2023-07-20T12:55:38;4.90;;;0.90;;
842;SDS011;407;48.884;9.126;2023-07-20T12:58:04;5.95;;;1.33;;
842;SDS011;407;48.884;9.126;2023-07-20T13:00:30;5.50;;;0.80;;
842;SDS011;407;48.884;9.126;2023-07-20T13:02:56;5.13;;;0.90;;
842;SDS011;407;48.884;9.126;2023-07-20T13:05:22;5.10;;;1.00;;
842;SDS011;407;48.884;9.126;2023-07-20T13:07:48;4.90;;;1.10;;
842;SDS011;407;48.884;9.126;2023-07-20T13:10:14;5.60;;;1.10;;
842;SDS011;407;48.884;9.126;2023-07-20T13:12:39;5.20;;;1.00;;
842;SDS011;407;48.884;9.126;2023-07-20T13:15:06;5.10;;;1.00;;
842;SDS011;407;48.884;9.126;2023-07-20T13:17:33;5.50;;;1.10;;
842;SDS011;407;48.884;9.126;2023-07-20T13:20:04;5.10;;;1.10;;
842;SDS011;407;48.884;9.126;2023-07-20T13:22:31;4.90;;;1.00;;
842;SDS011;407;48.884;9.126;2023-07-20T13:24:57;6.47;;;1.33;;
842;SDS011;407;48.884;9.126;2023-07-20T13:27:23;5.17;;;1.20;;
842;SDS011;407;48.884;9.126;2023-07-20T13:29:50;4.80;;;1.00;;
842;SDS011;407;48.884;9.126;2023-07-20T13:32:16;5.50;;;0.90;;
842;SDS011;407;48.884;9.126;2023-07-20T13:34:43;5.80;;;1.20;;
842;SDS011;407;48.884;9.126;2023-07-20T13:37:09;6.70;;;1.10;;
842;SDS011;407;48.884;9.126;2023-07-20T13:39:34;6.85;;;1.23;;
842;SDS011;407;48.884;9.126;2023-07-20T13:42:00;5.00;;;1.00;;
842;SDS011;407;48.884;9.126;2023-07-20T13:44:30;4.83;;;0.90;;
842;SDS011;407;48.884;9.126;2023-07-20T13:46:56;5.00;;;0.95;;
842;SDS011;407;48.884;9.126;2023-07-20T13:49:21;6.07;;;1.23;;
842;SDS011;407;48.884;9.126;2023-07-20T13:51:47;5.10;;;1.10;;
842;SDS011;407;48.884;9.126;2023-07-20T13:54:12;5.60;;;1.20;;
842;SDS011;407;48.884;9.126;2023-07-20T13:56:38;5.17;;;0.93;;
842;SDS011;407;48.884;9.126;2023-07-20T13:59:03;5.00;;;0.90;;
842;SDS011;407;48.884;9.126;2023-07-20T14:01:29;4.75;;;0.88;;
842;SDS011;407;48.884;9.126;2023-07-20T14:03:56;5.50;;;1.40;;
842;SDS011;407;48.884;9.126;2023-07-20T14:06:22;4.87;;;1.00;;
842;SDS011;407;48.884;9.126;2023-07-20T14:08:47;4.90;;;1.00;;
842;SDS011;407;48.884;9.126;2023-07-20T14:11:14;5.18;;;1.17;;
842;SDS011;407;48.884;9.126;2023-07-20T14:13:40;5.60;;;1.00;;
842;SDS011;407;48.884;9.126;2023-07-20T14:16:05;6.03;;;1.50;;
842;SDS011;407;48.884;9.126;2023-07-20T14:18:31;5.70;;;1.00;;
842;SDS011;407;48.884;9.126;2023-07-20T14:20:57;4.80;;;0.90;;
842;SDS011;407;48.884;9.126;2023-07-20T14:23:22;5.00;;;0.80;;
842;SDS011;407;48.884;9.126;2023-07-20T14:25:48;5.40;;;0.90;;
842;SDS011;407;48.884;9.126;2023-07-20T14:28:14;6.25;;;1.05;;
842;SDS011;407;48.884;9.126;2023-07-20T14:30:39;5.53;;;0.90;;
842;SDS011;407;48.884;9.126;2023-07-20T14:33:06;5.70;;;0.90;;
842;SDS011;407;48.884;9.126;2023-07-20T14:35:31;5.10;;;0.83;;
842;SDS011;407;48.884;9.126;2023-07-20T14:37:57;5.80;;;1.60;;
842;SDS011;407;48.884;9.126;2023-07-20T14:40:23;6.00;;;1.08;;
842;SDS011;407;48.884;9.126;2023-07-20T14:42:49;5.10;;;1.00;;
842;SDS011;407;48.884;9.126;2023-07-20T14:45:14;6.93;;;1.00;;
842;SDS011;407;48.884;9.126;2023-07-20T14:47:40;5.50;;;1.20;;
842;SDS011;407;48.884;9.126;2023-07-20T14:50:05;6.03;;;1.10;;
842;SDS011;407;48.884;9.126;2023-07-20T14:52:31;6.78;;;1.10;;
842;SDS011;407;48.884;9.126;2023-07-20T14:54:57;5.20;;;1.00;;
842;SDS011;407;48.884;9.126;2023-07-20T14:57:22;5.43;;;1.03;;
842;SDS011;407;48.884;9.126;2023-07-20T14:59:51;5.10;;;1.13;;
842;SDS011;407;48.884;9.126;2023-07-20T15:02:17;4.80;;;1.00;;
842;SDS011;407;48.884;9.126;2023-07-20T15:04:47;6.30;;;1.00;;
842;SDS011;407;48.884;9.126;2023-07-20T15:07:14;4.80;;;0.90;;
842;SDS011;407;48.884;9.126;2023-07-20T15:09:40;5.00;;;1.20;;
842;SDS011;407;48.884;9.126;2023-07-20T15:12:06;4.85;;;0.80;;
842;SDS011;407;48.884;9.126;2023-07-20T15:14:32;5.00;;;0.93;;
842;SDS011;407;48.884;9.126;2023-07-20T15:16:58;5.10;;;0.90;;
842;SDS011;407;48.884;9.126;2023-07-20T15:19:23;4.90;;;0.90;;
842;SDS011;407;48.884;9.126;2023-07-20T15:21:49;5.40;;;1.10;;
842;SDS011;407;48.884;9.126;2023-07-20T15:24:15;5.40;;;1.10;;
842;SDS011;407;48.884;9.126;2023-07-20T15:26:40;9.20;;;1.10;;
842;SDS011;407;48.884;9.126;2023-07-20T15:29:06;4.90;;;1.00;;
842;SDS011;407;48.884;9.126;2023-07-20T15:31:31;6.00;;;1.10;;
842;SDS011;407;48.884;9.126;2023-07-20T15:33:57;4.50;;;0.73;;
842;SDS011;407;48.884;9.126;2023-07-20T15:36:23;6.30;;;1.03;;
842;SDS011;407;48.884;9.126;2023-07-20T15:38:48;5.10;;;0.93;;
842;SDS011;407;48.884;9.126;2023-07-20T15:41:14;7.03;;;1.10;;
842;SDS011;407;48.884;9.126;2023-07-20T15:43:40;5.00;;;1.10;;
842;SDS011;407;48.884;9.126;2023-07-20T15:48:44;5.23;;;1.03;;
842;SDS011;407;48.884;9.126;2023-07-20T15:51:10;4.88;;;1.00;;
842;SDS011;407;48.884;9.126;2023-07-20T15:53:35;5.10;;;1.10;;
842;SDS011;407;48.884;9.126;2023-07-20T15:56:02;5.80;;;0.90;;
842;SDS011;407;48.884;9.126;2023-07-20T15:58:28;5.45;;;1.20;;
842;SDS011;407;48.884;9.126;2023-07-20T16:00:54;6.30;;;1.00;;
842;SDS011;407;48.884;9.126;2023-07-20T16:03:20;5.35;;;0.80;;
842;SDS011;407;48.884;9.126;2023-07-20T16:05:46;5.50;;;0.93;;
842;SDS011;407;48.884;9.126;2023-07-20T16:08:12;5.22;;;1.08;;